Time;durP1;ratioP1;P1;durP2;ratioP2;P2;SDS_P1;SDS_P2;PMS_P1;PMS_P2;Temp;Humidity;BMP_temperature;BMP_pressure;BME280_temperature;BME280_humidity;BME280_pressure;Samples;Min_cycle;Max_cycle;Signal;HPM_P1;HPM_P2
2022/05/19 00:00:27;;;;;;;;;;;;;;;22.17;59.98;101609.53;5093423;28;20279;-65
2022/05/19 00:02:54;;;;;;;;;;;;;;;22.15;59.96;101602.56;5095481;28;19958;-65
2022/05/19 00:05:19;;;;;;;;;;;;;;;22.13;59.41;101604.56;5095790;28;19920;-65
2022/05/19 00:07:45;;;;;;;;;;;;;;;22.07;60.16;101608.72;5094605;28;19916;-65
2022/05/19 00:10:10;;;;;;;;;;;;;;;22.07;60.69;101600.59;5093798;28;20355;-65
2022/05/19 00:12:35;;;;;;;;;;;;;;;22.06;59.42;101589.91;5093362;28;19959;-65
2022/05/19 00:15:01;;;;;;;;;;;;;;;22.06;59.81;101595.31;5093341;28;19966;-66
2022/05/19 00:17:27;;;;;;;;;;;;;;;22.06;59.77;101585.38;5096181;28;20010;-66
2022/05/19 00:19:52;;;;;;;;;;;;;;;22.08;59.37;101586.03;5093602;28;19942;-66
2022/05/19 00:22:18;;;;;;;;;;;;;;;22.04;59.34;101581.94;5096012;28;20286;-65
2022/05/19 00:24:43;;;;;;;;;;;;;;;22.03;60.17;101576.66;5093260;28;20386;-66
2022/05/19 00:27:10;;;;;;;;;;;;;;;22.00;59.39;101580.53;5097058;28;19915;-65
2022/05/19 00:29:35;;;;;;;;;;;;;;;21.98;59.59;101579.84;5094095;28;20294;-65
2022/05/19 00:32:01;;;;;;;;;;;;;;;21.96;59.65;101577.28;5093702;28;19923;-65
2022/05/19 00:34:26;;;;;;;;;;;;;;;21.98;59.88;101574.44;5094347;28;19912;-65
2022/05/19 00:37:02;;;;;;;;;;;;;;;21.96;60.18;101568.31;5075715;28;20294;-65
2022/05/19 00:39:28;;;;;;;;;;;;;;;21.94;59.37;101564.91;5094400;28;20371;-66
2022/05/19 00:44:38;;;;;;;;;;;;;;;21.88;60.59;101560.09;5093845;28;19937;-65
2022/05/19 00:47:05;;;;;;;;;;;;;;;21.83;60.07;101557.00;5094169;28;20387;-65
2022/05/19 00:49:32;;;;;;;;;;;;;;;21.76;60.03;101563.00;5094541;28;20295;-65
2022/05/19 00:52:10;;;;;;;;;;;;;;;21.70;60.19;101554.66;5098862;28;20263;-66
2022/05/19 00:54:42;;;;;;;;;;;;;;;21.68;60.41;101552.13;5093187;28;19920;-65
2022/05/19 00:57:14;;;;;;;;;;;;;;;21.68;59.76;101548.56;5094237;28;20010;-65
2022/05/19 00:59:51;;;;;;;;;;;;;;;21.68;60.65;101545.84;5092195;28;20386;-65
2022/05/19 01:02:19;;;;;;;;;;;;;;;21.67;61.03;101538.72;5093408;28;19919;-65
2022/05/19 01:04:57;;;;;;;;;;;;;;;21.65;60.55;101538.00;5093154;28;19920;-65
2022/05/19 01:07:41;;;;;;;;;;;;;;;21.62;60.55;101533.78;5095372;28;19919;-65
2022/05/19 01:10:07;;;;;;;;;;;;;;;21.46;60.77;101531.72;5092931;28;19912;-65
2022/05/19 01:12:34;;;;;;;;;;;;;;;21.43;61.45;101528.47;5093379;28;19920;-66
2022/05/19 01:15:00;;;;;;;;;;;;;;;21.41;61.30;101525.88;5093387;28;19935;-65
2022/05/19 01:17:26;;;;;;;;;;;;;;;21.40;60.77;101524.19;5092577;28;20379;-66
2022/05/19 01:20:00;;;;;;;;;;;;;;;21.41;60.41;101523.19;5093024;28;19973;-66
2022/05/19 01:22:25;;;;;;;;;;;;;;;21.41;61.52;101523.19;5094947;28;19984;-65
2022/05/19 01:25:02;;;;;;;;;;;;;;;21.38;61.01;101518.06;5092596;28;20003;-66
2022/05/19 01:27:29;;;;;;;;;;;;;;;21.35;60.93;101517.50;5093801;28;19916;-66
2022/05/19 01:29:55;;;;;;;;;;;;;;;21.33;61.14;101512.25;5093168;28;19988;-65
2022/05/19 01:32:22;;;;;;;;;;;;;;;21.32;62.43;101506.00;5094419;28;20635;-65
2022/05/19 01:34:47;;;;;;;;;;;;;;;21.27;61.56;101494.75;5091964;28;19916;-66
2022/05/19 01:37:13;;;;;;;;;;;;;;;21.20;62.75;101487.38;5091768;28;19916;-65
2022/05/19 01:39:39;;;;;;;;;;;;;;;21.13;62.28;101487.13;5092191;28;19916;-65
2022/05/19 01:42:04;;;;;;;;;;;;;;;21.11;62.57;101486.44;5093497;28;19923;-65
2022/05/19 01:44:48;;;;;;;;;;;;;;;21.09;60.60;101488.47;5092662;28;19958;-65
2022/05/19 01:47:13;;;;;;;;;;;;;;;21.09;62.90;101488.47;5102529;28;19920;-66
2022/05/19 01:49:38;;;;;;;;;;;;;;;21.07;63.00;101499.41;5092193;28;19978;-65
2022/05/19 01:52:15;;;;;;;;;;;;;;;21.02;63.39;101487.34;5094077;28;19912;-66
2022/05/19 01:54:49;;;;;;;;;;;;;;;20.99;65.65;101485.78;5093599;28;19912;-66
2022/05/19 01:57:18;;;;;;;;;;;;;;;20.88;63.87;101491.38;5092769;28;20011;-65
2022/05/19 01:59:48;;;;;;;;;;;;;;;20.84;64.18;101480.00;5091909;28;19938;-66
2022/05/19 02:02:27;;;;;;;;;;;;;;;20.79;64.58;101481.44;5092647;28;19912;-66
2022/05/19 02:04:53;;;;;;;;;;;;;;;20.79;64.47;101473.31;5092328;28;20003;-66
2022/05/19 02:07:19;;;;;;;;;;;;;;;20.83;64.42;101475.59;5093763;28;19994;-65
2022/05/19 02:09:55;;;;;;;;;;;;;;;20.85;64.25;101465.50;5091654;28;20291;-66
2022/05/19 02:12:21;;;;;;;;;;;;;;;20.87;63.53;101471.59;5094863;28;19922;-66
2022/05/19 02:14:50;;;;;;;;;;;;;;;20.88;63.68;101475.13;5092255;28;19995;-65
2022/05/19 02:17:19;;;;;;;;;;;;;;;20.78;67.28;101480.59;5090173;28;19916;-65
2022/05/19 02:19:46;;;;;;;;;;;;;;;20.69;65.01;101480.63;5092766;28;20444;-65
2022/05/19 02:22:15;;;;;;;;;;;;;;;20.72;64.45;101475.78;5094270;28;19912;-65
2022/05/19 02:24:44;;;;;;;;;;;;;;;20.76;65.31;101482.59;5089377;28;19957;-65
2022/05/19 02:27:25;;;;;;;;;;;;;;;20.79;65.98;101481.44;5091547;28;19931;-65
2022/05/19 02:29:50;;;;;;;;;;;;;;;20.80;64.80;101480.47;5091720;28;20452;-65
2022/05/19 02:32:16;;;;;;;;;;;;;;;20.80;64.83;101485.88;5073459;28;19916;-65
2022/05/19 02:34:41;;;;;;;;;;;;;;;20.79;64.18;101479.59;5074206;28;20294;-65
2022/05/19 02:37:07;;;;;;;;;;;;;;;20.80;65.35;101477.75;5091357;28;20010;-65
2022/05/19 02:39:32;;;;;;;;;;;;;;;20.80;65.55;101488.56;5092562;28;19947;-65
2022/05/19 02:41:57;;;;;;;;;;;;;;;20.80;63.75;101484.00;5095441;28;20371;-65
2022/05/19 02:44:23;;;;;;;;;;;;;;;20.85;63.59;101492.53;5092465;28;19912;-65
2022/05/19 02:46:48;;;;;;;;;;;;;;;20.91;63.70;101491.06;5089324;28;19916;-65
2022/05/19 02:49:14;;;;;;;;;;;;;;;20.93;63.51;101489.06;5092007;28;19966;-65
2022/05/19 02:51:39;;;;;;;;;;;;;;;20.93;63.11;101491.78;5091269;28;19976;-65
2022/05/19 02:54:05;;;;;;;;;;;;;;;20.95;63.95;101491.66;5092547;28;20292;-66
2022/05/19 02:56:31;;;;;;;;;;;;;;;20.94;64.06;101493.50;5091492;28;19935;-65
2022/05/19 02:58:57;;;;;;;;;;;;;;;20.92;63.70;101491.94;5091487;28;19999;-66
2022/05/19 03:01:22;;;;;;;;;;;;;;;20.80;65.83;101510.22;5091024;28;20015;-65
2022/05/19 03:03:48;;;;;;;;;;;;;;;20.78;65.62;101555.47;5090938;28;19915;-65
2022/05/19 03:06:14;;;;;;;;;;;;;;;20.65;67.13;101620.66;5093010;28;20432;-66
2022/05/19 03:08:39;;;;;;;;;;;;;;;20.52;68.01;101620.94;5091767;28;19995;-65
2022/05/19 03:11:04;;;;;;;;;;;;;;;20.50;67.93;101597.69;5091466;28;19960;-65
2022/05/19 03:13:30;;;;;;;;;;;;;;;20.51;67.75;101637.25;5092521;28;19919;-65
2022/05/19 03:15:55;;;;;;;;;;;;;;;20.50;66.10;101658.03;5091193;28;19912;-65
2022/05/19 03:18:23;;;;;;;;;;;;;;;20.59;65.94;101645.56;5091491;28;19923;-65
2022/05/19 03:20:48;;;;;;;;;;;;;;;20.68;66.38;101649.22;5090762;28;19919;-65
2022/05/19 03:23:14;;;;;;;;;;;;;;;20.74;65.44;101643.28;5091697;28;20268;-65
2022/05/19 03:25:39;;;;;;;;;;;;;;;20.79;65.19;101652.63;5090864;28;19912;-65
2022/05/19 03:28:05;;;;;;;;;;;;;;;20.84;64.87;101650.34;5089686;28;19920;-66
2022/05/19 03:30:30;;;;;;;;;;;;;;;20.94;64.54;101657.59;5091019;28;20283;-66
2022/05/19 03:32:58;;;;;;;;;;;;;;;21.01;64.46;101651.47;5073883;28;19998;-66
2022/05/19 03:35:23;;;;;;;;;;;;;;;21.02;63.45;101649.63;5091156;28;19916;-65
2022/05/19 03:37:49;;;;;;;;;;;;;;;21.05;64.80;101652.88;5090964;28;19973;-65
2022/05/19 03:40:15;;;;;;;;;;;;;;;21.04;64.80;101655.75;5088919;28;19923;-66
2022/05/19 03:42:41;;;;;;;;;;;;;;;21.04;64.19;101659.31;5091592;28;19924;-65
2022/05/19 03:45:07;;;;;;;;;;;;;;;21.05;63.75;101670.97;5091210;28;20005;-65
2022/05/19 03:47:35;;;;;;;;;;;;;;;21.06;64.53;101643.78;5091709;28;20366;-66
2022/05/19 03:50:01;;;;;;;;;;;;;;;21.06;64.30;101627.56;5091769;28;19912;-66
2022/05/19 03:52:27;;;;;;;;;;;;;;;21.06;64.28;101643.78;5092603;28;19919;-66
2022/05/19 03:54:52;;;;;;;;;;;;;;;21.04;64.51;101645.78;5091998;28;20378;-66
2022/05/19 03:57:21;;;;;;;;;;;;;;;21.03;64.20;101643.19;5091343;28;19912;-66
2022/05/19 03:59:49;;;;;;;;;;;;;;;20.97;64.46;101668.13;5091660;28;19924;-66
2022/05/19 04:02:14;;;;;;;;;;;;;;;20.92;64.41;101663.16;5090433;28;19940;-66
2022/05/19 04:04:40;;;;;;;;;;;;;;;20.94;64.31;101663.00;5089327;28;19954;-66
2022/05/19 04:07:05;;;;;;;;;;;;;;;20.93;64.80;101656.75;5093759;28;19984;-66
2022/05/19 04:09:31;;;;;;;;;;;;;;;20.95;64.06;101664.75;5094499;28;19955;-66
2022/05/19 04:11:57;;;;;;;;;;;;;;;20.94;64.10;101666.59;5094968;28;20267;-66
2022/05/19 04:14:22;;;;;;;;;;;;;;;20.96;65.21;101655.63;5094053;28;20002;-66
2022/05/19 04:16:50;;;;;;;;;;;;;;;20.92;65.79;101665.88;5093070;28;19916;-66
2022/05/19 04:19:15;;;;;;;;;;;;;;;20.89;64.79;101665.31;5091532;28;20371;-66
2022/05/19 04:21:41;;;;;;;;;;;;;;;20.88;64.23;101669.84;5094520;28;19918;-66
2022/05/19 04:24:06;;;;;;;;;;;;;;;20.91;64.40;101674.13;5092730;28;19923;-66
2022/05/19 04:26:31;;;;;;;;;;;;;;;20.94;64.13;101669.31;5092107;28;20320;-66
2022/05/19 04:28:57;;;;;;;;;;;;;;;20.95;64.48;101671.00;5091890;28;19961;-66
2022/05/19 04:31:25;;;;;;;;;;;;;;;20.94;63.77;101658.47;5093342;28;19912;-66
2022/05/19 04:33:50;;;;;;;;;;;;;;;20.96;66.36;101655.63;5096007;28;20006;-66
2022/05/19 04:36:16;;;;;;;;;;;;;;;20.86;65.83;101659.19;5097403;28;19996;-65
2022/05/19 04:38:41;;;;;;;;;;;;;;;20.84;65.71;101649.50;5093396;28;19915;-66
2022/05/19 04:41:09;;;;;;;;;;;;;;;20.84;67.43;101653.06;5094411;28;20006;-65
2022/05/19 04:43:35;;;;;;;;;;;;;;;20.80;65.36;101661.63;5094308;28;20003;-66
2022/05/19 04:46:01;;;;;;;;;;;;;;;20.81;65.50;101668.72;5095452;28;20252;-65
2022/05/19 04:48:27;;;;;;;;;;;;;;;20.83;65.58;101653.22;5093822;28;19918;-66
2022/05/19 04:50:54;;;;;;;;;;;;;;;20.82;66.13;101651.50;5093908;28;20446;-66
2022/05/19 04:53:19;;;;;;;;;;;;;;;20.81;66.65;101650.66;5094114;28;20367;-66
2022/05/19 04:55:45;;;;;;;;;;;;;;;20.83;66.17;101648.66;5093157;28;19916;-66
2022/05/19 04:58:10;;;;;;;;;;;;;;;20.83;65.83;101651.38;5096197;28;19912;-66
2022/05/19 05:00:36;;;;;;;;;;;;;;;20.78;65.69;101653.63;5090916;28;20279;-66
2022/05/19 05:03:02;;;;;;;;;;;;;;;20.76;66.26;101661.03;5094290;28;19919;-66
2022/05/19 05:05:28;;;;;;;;;;;;;;;20.77;66.35;101654.66;5094714;28;20503;-66
2022/05/19 05:07:54;;;;;;;;;;;;;;;20.78;67.92;101659.03;5092576;28;19974;-66
2022/05/19 05:10:19;;;;;;;;;;;;;;;20.74;68.37;101649.53;5094685;28;20023;-66
2022/05/19 05:12:44;;;;;;;;;;;;;;;20.70;66.97;101634.56;5091399;28;21378;-66
2022/05/19 05:15:10;;;;;;;;;;;;;;;20.71;67.27;101635.44;5091539;28;19916;-66
2022/05/19 05:17:35;;;;;;;;;;;;;;;20.71;67.21;101627.34;5093997;28;19916;-66
2022/05/19 05:20:01;;;;;;;;;;;;;;;20.69;69.58;101616.66;5094078;28;19920;-66
2022/05/19 05:22:27;;;;;;;;;;;;;;;20.59;69.67;101605.00;5094904;28;19919;-66
2022/05/19 05:24:55;;;;;;;;;;;;;;;20.56;69.38;101607.97;5092317;28;19916;-66
2022/05/19 05:27:23;;;;;;;;;;;;;;;20.56;68.36;101594.47;5093074;28;19970;-66
2022/05/19 05:29:49;;;;;;;;;;;;;;;20.56;68.48;101589.94;5092072;28;19920;-66
2022/05/19 05:32:14;;;;;;;;;;;;;;;20.57;67.27;101588.91;5092581;28;19915;-66
2022/05/19 05:34:40;;;;;;;;;;;;;;;20.56;69.00;101587.22;5091546;28;19912;-65
2022/05/19 05:37:07;;;;;;;;;;;;;;;20.55;68.63;101574.69;5094984;28;19998;-66
2022/05/19 05:39:32;;;;;;;;;;;;;;;20.55;68.62;101563.88;5091287;28;19927;-65
2022/05/19 05:41:58;;;;;;;;;;;;;;;20.52;70.21;101544.38;5091585;28;20375;-65
2022/05/19 05:44:23;;;;;;;;;;;;;;;20.49;71.04;101553.63;5094073;28;19923;-65
2022/05/19 05:46:49;;;;;;;;;;;;;;;20.39;71.21;101533.88;5091129;28;19920;-66
2022/05/19 05:49:14;;;;;;;;;;;;;;;20.34;70.98;101534.28;5092341;28;19911;-66
2022/05/19 05:51:39;;;;;;;;;;;;;;;20.26;74.42;101547.66;5091755;28;21931;-65
2022/05/19 05:54:05;;;;;;;;;;;;;;;20.16;71.95;101552.22;5091708;28;19922;-66
2022/05/19 05:56:31;;;;;;;;;;;;;;;20.18;72.05;101553.78;5093431;28;19920;-65
2022/05/19 05:58:56;;;;;;;;;;;;;;;20.17;72.56;101546.66;5090750;28;20294;-66
2022/05/19 06:01:24;;;;;;;;;;;;;;;20.19;71.82;101536.56;5090101;28;19912;-66
2022/05/19 06:03:52;;;;;;;;;;;;;;;20.22;71.50;101523.78;5094128;28;19926;-66
2022/05/19 06:06:17;;;;;;;;;;;;;;;20.24;74.90;101528.06;5096155;28;19970;-66
2022/05/19 06:08:43;;;;;;;;;;;;;;;20.15;74.71;101556.78;5092212;28;20317;-66
2022/05/19 06:11:09;;;;;;;;;;;;;;;20.08;73.54;101563.72;5092344;28;19916;-66
2022/05/19 06:13:36;;;;;;;;;;;;;;;20.08;74.48;101560.16;5092783;28;19973;-65
2022/05/19 06:16:02;;;;;;;;;;;;;;;20.08;74.15;101555.63;5094268;28;20438;-66
2022/05/19 06:18:28;;;;;;;;;;;;;;;20.13;73.42;101560.59;5093209;28;19990;-66
2022/05/19 06:20:54;;;;;;;;;;;;;;;20.19;73.96;101558.19;5091237;28;19962;-66
2022/05/19 06:23:19;;;;;;;;;;;;;;;20.24;73.95;101557.78;5093320;28;19923;-66
2022/05/19 06:25:45;;;;;;;;;;;;;;;20.28;73.17;101555.63;5091499;28;20148;-66
2022/05/19 06:28:11;;;;;;;;;;;;;;;20.26;71.93;101547.66;5092186;28;20286;-66
2022/05/19 06:30:36;;;;;;;;;;;;;;;20.28;72.28;101540.28;5090584;28;19920;-66
2022/05/19 06:33:02;;;;;;;;;;;;;;;20.32;72.53;101536.28;5089740;28;20412;-66
2022/05/19 06:35:28;;;;;;;;;;;;;;;20.34;74.67;101542.41;5091979;28;20440;-65
2022/05/19 06:37:54;;;;;;;;;;;;;;;20.26;74.85;101546.81;5091391;28;20643;-66
2022/05/19 06:40:19;;;;;;;;;;;;;;;20.27;75.19;101543.13;5090738;28;19920;-67
2022/05/19 06:42:45;;;;;;;;;;;;;;;20.22;74.58;101548.09;5090000;28;19963;-66
2022/05/19 06:45:12;;;;;;;;;;;;;;;20.24;74.66;101536.16;5091266;28;19912;-66
2022/05/19 06:47:38;;;;;;;;;;;;;;;20.29;74.20;101516.81;5100956;28;19965;-67
2022/05/19 06:50:04;;;;;;;;;;;;;;;20.35;74.62;101527.03;5092400;28;19919;-66
2022/05/19 06:52:31;;;;;;;;;;;;;;;20.40;74.08;101535.56;5092969;28;19912;-66
2022/05/19 06:54:57;;;;;;;;;;;;;;;20.46;74.03;101531.44;5091589;28;19912;-66
2022/05/19 06:57:24;;;;;;;;;;;;;;;20.51;73.36;101527.31;5091652;28;19959;-66
2022/05/19 06:59:49;;;;;;;;;;;;;;;20.53;74.04;101541.56;5090498;28;19920;-66
2022/05/19 07:02:15;;;;;;;;;;;;;;;20.58;74.63;101539.25;5090212;28;20373;-66
2022/05/19 07:04:41;;;;;;;;;;;;;;;20.62;72.88;101526.34;5073334;28;20383;-66
2022/05/19 07:07:06;;;;;;;;;;;;;;;20.67;74.43;101518.63;5091851;28;19920;-66
2022/05/19 07:09:33;;;;;;;;;;;;;;;20.73;73.50;101528.00;5091220;28;19955;-66
2022/05/19 07:12:00;;;;;;;;;;;;;;;20.81;73.68;101515.44;5093844;28;20010;-67
2022/05/19 07:14:25;;;;;;;;;;;;;;;20.86;72.79;101510.47;5090181;28;20113;-66
2022/05/19 07:16:50;;;;;;;;;;;;;;;20.94;72.42;101516.97;5086297;28;19920;-66
2022/05/19 07:22:00;;;;;;;;;;;;;;;21.02;73.33;101514.38;5089123;28;20457;-66
2022/05/19 07:24:25;;;;;;;;;;;;;;;21.02;72.44;101514.38;5091735;28;19920;-66
2022/05/19 07:26:54;;;;;;;;;;;;;;;21.08;72.83;101509.22;5091210;28;19923;-66
2022/05/19 07:29:20;;;;;;;;;;;;;;;21.15;72.20;101506.78;5088769;28;19994;-66
2022/05/19 07:31:46;;;;;;;;;;;;;;;21.16;72.61;101508.47;5089296;28;19960;-67
2022/05/19 07:34:14;;;;;;;;;;;;;;;21.18;71.88;101509.19;5090760;28;19920;-66
2022/05/19 07:36:42;;;;;;;;;;;;;;;21.15;72.00;101525.72;5090213;28;20006;-66
2022/05/19 07:39:08;;;;;;;;;;;;;;;21.21;73.10;101529.69;5089346;28;19942;-66
2022/05/19 07:41:34;;;;;;;;;;;;;;;21.28;72.71;101533.50;5094187;28;20418;-66
2022/05/19 07:43:59;;;;;;;;;;;;;;;21.23;72.41;101508.72;5092894;28;20370;-66
2022/05/19 07:46:25;;;;;;;;;;;;;;;21.52;70.72;101546.50;5092788;28;19961;-66
2022/05/19 07:48:54;;;;;;;;;;;;;;;21.63;70.29;101550.88;5093946;28;19912;-66
2022/05/19 07:51:20;;;;;;;;;;;;;;;21.75;70.58;101541.53;5106366;28;19923;-67
2022/05/19 07:53:45;;;;;;;;;;;;;;;21.83;68.67;101535.34;5089131;28;19916;-66
2022/05/19 07:56:10;;;;;;;;;;;;;;;21.89;68.81;101534.72;5095765;28;20351;-66
2022/05/19 07:58:36;;;;;;;;;;;;;;;22.05;68.13;101540.28;5091758;28;19947;-66
2022/05/19 08:01:01;;;;;;;;;;;;;;;22.18;67.95;101529.97;5093897;28;20652;-67
2022/05/19 08:03:27;;;;;;;;;;;;;;;22.36;66.32;101521.81;5094704;28;19924;-67
2022/05/19 08:05:52;;;;;;;;;;;;;;;22.54;66.37;101523.63;5092786;28;19918;-67
2022/05/19 08:08:18;;;;;;;;;;;;;;;22.71;65.48;101513.72;5093897;28;19912;-66
2022/05/19 08:10:43;;;;;;;;;;;;;;;22.79;63.24;101522.75;5093602;28;20494;-66
2022/05/19 08:15:52;;;;;;;;;;;;;;;23.12;63.48;101531.16;5092891;28;19927;-66
2022/05/19 08:18:19;;;;;;;;;;;;;;;23.31;63.27;101533.59;5093855;28;19912;-66
2022/05/19 08:20:46;;;;;;;;;;;;;;;23.55;63.25;101530.09;5094545;28;20251;-67
2022/05/19 08:23:13;;;;;;;;;;;;;;;23.75;60.95;101528.00;5092714;28;19919;-67
2022/05/19 08:25:39;;;;;;;;;;;;;;;23.86;59.64;101526.84;5107122;28;19961;-67
2022/05/19 08:28:05;;;;;;;;;;;;;;;24.01;59.86;101540.59;5095054;28;19916;-67
2022/05/19 08:30:30;;;;;;;;;;;;;;;24.15;58.89;101526.34;5094518;28;20366;-67
2022/05/19 08:32:56;;;;;;;;;;;;;;;24.23;57.01;101529.06;5093041;28;20428;-66
2022/05/19 08:35:24;;;;;;;;;;;;;;;24.36;57.12;101520.41;5093035;28;20457;-67
2022/05/19 08:37:50;;;;;;;;;;;;;;;24.41;56.30;101530.75;5094022;28;19935;-67
2022/05/19 08:40:17;;;;;;;;;;;;;;;24.52;57.09;101522.28;5093636;28;19920;-67
2022/05/19 08:42:48;;;;;;;;;;;;;;;24.70;55.74;101509.31;5091644;28;19923;-65
2022/05/19 08:45:22;;;;;;;;;;;;;;;24.86;56.56;101518.50;5094240;28;19911;-66
2022/05/19 08:47:49;;;;;;;;;;;;;;;25.03;53.65;101520.16;5096679;28;19928;-66
2022/05/19 08:50:24;;;;;;;;;;;;;;;25.07;53.03;101507.88;5092489;28;19904;-68
2022/05/19 08:52:53;;;;;;;;;;;;;;;25.07;52.83;101510.59;5091602;28;19922;-69
2022/05/19 08:55:19;;;;;;;;;;;;;;;25.16;54.10;101497.81;5092323;28;20282;-69
2022/05/19 08:57:57;;;;;;;;;;;;;;;25.19;53.84;101497.47;5094681;28;19911;-69
2022/05/19 09:00:25;;;;;;;;;;;;;;;25.40;53.30;101494.13;5094395;28;20011;-70
2022/05/19 09:03:04;;;;;;;;;;;;;;;25.54;53.51;101493.38;5093285;28;19912;-69
2022/05/19 09:05:48;;;;;;;;;;;;;;;25.53;51.87;101499.00;5091801;28;20440;-68
2022/05/19 09:08:19;;;;;;;;;;;;;;;25.39;51.00;101492.44;5095773;28;20359;-67
2022/05/19 09:10:54;;;;;;;;;;;;;;;25.37;51.71;101483.59;5094912;28;19934;-68
2022/05/19 09:13:31;;;;;;;;;;;;;;;25.48;52.27;101491.38;5092226;28;20286;-68
2022/05/19 09:15:56;;;;;;;;;;;;;;;25.70;52.57;101489.69;5093489;28;19961;-68
2022/05/19 09:18:29;;;;;;;;;;;;;;;25.94;52.09;101491.44;5091797;28;19912;-68
2022/05/19 09:20:55;;;;;;;;;;;;;;;26.20;50.77;101485.59;5094391;28;19916;-68
2022/05/19 09:23:21;;;;;;;;;;;;;;;26.31;51.47;101483.47;5091698;28;19958;-68
2022/05/19 09:25:49;;;;;;;;;;;;;;;26.34;49.78;101485.81;5091839;28;20016;-68
2022/05/19 09:28:15;;;;;;;;;;;;;;;26.35;51.87;101482.06;5093034;28;20378;-68
2022/05/19 09:30:46;;;;;;;;;;;;;;;26.35;50.52;101487.50;5093215;28;19916;-68
2022/05/19 09:33:16;;;;;;;;;;;;;;;26.34;50.01;101486.66;5094914;28;19919;-67
2022/05/19 09:35:45;;;;;;;;;;;;;;;26.35;51.65;101484.78;5093078;28;19939;-69
2022/05/19 09:38:34;;;;;;;;;;;;;;;26.40;51.37;101488.66;5092376;28;19916;-69
2022/05/19 09:41:21;;;;;;;;;;;;;;;26.35;49.91;101488.34;5107889;28;20318;-68
2022/05/19 09:43:52;;;;;;;;;;;;;;;26.24;51.00;101497.00;5092782;28;20013;-69
2022/05/19 09:46:17;;;;;;;;;;;;;;;26.19;50.42;101488.50;5074888;28;19912;-68
2022/05/19 09:49:03;;;;;;;;;;;;;;;26.12;50.40;101482.94;5092628;28;20306;-68
2022/05/19 09:51:38;;;;;;;;;;;;;;;26.08;50.96;101487.06;5090681;28;20017;-68
2022/05/19 09:54:12;;;;;;;;;;;;;;;26.09;50.92;101487.91;5093089;28;19965;-68
2022/05/19 09:56:42;;;;;;;;;;;;;;;26.17;49.46;101476.94;5092877;28;20274;-68
2022/05/19 09:59:12;;;;;;;;;;;;;;;26.24;50.44;101472.44;5085710;28;19990;-69
2022/05/19 10:01:39;;;;;;;;;;;;;;;26.29;49.88;101459.09;5089722;28;19947;-68
2022/05/19 10:04:09;;;;;;;;;;;;;;;26.34;50.11;101464.84;5087848;28;19916;-68
2022/05/19 10:06:55;;;;;;;;;;;;;;;26.42;49.47;101458.47;5087025;28;19923;-69
2022/05/19 10:09:22;;;;;;;;;;;;;;;26.55;49.42;101439.59;5089619;28;19997;-68
2022/05/19 10:11:50;;;;;;;;;;;;;;;26.58;46.10;101438.38;5091889;28;19912;-68
2022/05/19 10:14:17;;;;;;;;;;;;;;;26.62;48.52;101421.44;5085117;28;19938;-67
2022/05/19 10:16:58;;;;;;;;;;;;;;;26.87;46.52;101423.88;5091311;28;19981;-67
2022/05/19 10:19:38;;;;;;;;;;;;;;;27.07;47.67;101413.19;5089943;28;19916;-67
2022/05/19 10:22:24;;;;;;;;;;;;;;;27.22;44.40;101418.66;5083535;28;20335;-68
2022/05/19 10:24:49;;;;;;;;;;;;;;;27.28;45.10;101423.34;5089675;28;19915;-67
2022/05/19 10:33:21;;;;;;;;;;;;;;;27.60;45.21;101408.34;5089250;28;19919;-67
2022/05/19 10:35:46;;;;;;;;;;;;;;;27.85;44.19;101408.81;5090215;28;19920;-67
2022/05/19 10:38:20;;;;;;;;;;;;;;;28.03;44.17;101411.06;5090765;28;20413;-68
2022/05/19 10:40:47;;;;;;;;;;;;;;;28.19;43.11;101410.78;5091816;28;19920;-68
2022/05/19 10:43:27;;;;;;;;;;;;;;;28.29;43.70;101424.09;5091330;28;20420;-68
2022/05/19 10:45:56;;;;;;;;;;;;;;;28.38;42.89;101424.78;5089703;28;20382;-68
2022/05/19 10:48:40;;;;;;;;;;;;;;;28.24;42.77;101415.66;5089916;28;19981;-68
2022/05/19 10:51:11;;;;;;;;;;;;;;;28.12;43.25;101420.84;5107255;27;19912;-68
2022/05/19 10:53:36;;;;;;;;;;;;;;;28.11;43.46;101419.13;5087138;28;19912;-69
2022/05/19 10:56:20;;;;;;;;;;;;;;;28.16;42.24;101411.16;5090326;28;20448;-68
2022/05/19 10:58:58;;;;;;;;;;;;;;;28.20;41.68;101412.44;5090258;28;19915;-70
2022/05/19 11:01:26;;;;;;;;;;;;;;;28.19;41.64;101405.31;5092978;28;19926;-67
2022/05/19 11:04:10;;;;;;;;;;;;;;;28.16;41.62;101400.22;5090094;28;19912;-67
2022/05/19 11:06:54;;;;;;;;;;;;;;;28.07;42.09;101410.47;5089240;28;19915;-69
2022/05/19 11:09:19;;;;;;;;;;;;;;;27.91;42.12;101404.44;5088214;28;19916;-69
2022/05/19 11:11:54;;;;;;;;;;;;;;;27.79;43.50;101404.13;5089764;28;20271;-69
2022/05/19 11:14:28;;;;;;;;;;;;;;;27.67;43.95;101409.25;5089450;28;20028;-69
2022/05/19 11:17:03;;;;;;;;;;;;;;;27.52;44.26;101405.75;5092570;28;19918;-69
2022/05/19 11:19:35;;;;;;;;;;;;;;;27.38;43.88;101408.34;5091460;28;19961;-69
2022/05/19 11:22:04;;;;;;;;;;;;;;;27.25;44.15;101418.28;5091437;28;20022;-69
2022/05/19 11:27:38;;;;;;;;;;;;;;;26.95;44.86;101442.88;5087914;28;19920;-69
2022/05/19 11:30:19;;;;;;;;;;;;;;;26.83;45.45;101447.97;5090172;28;20259;-69
2022/05/19 11:32:48;;;;;;;;;;;;;;;26.73;45.47;101453.69;5096882;28;19916;-69
2022/05/19 11:35:25;;;;;;;;;;;;;;;26.66;46.27;101468.31;5096317;28;19911;-68
2022/05/19 11:38:23;;;;;;;;;;;;;;;26.57;46.26;101483.91;5093491;28;20002;-69
2022/05/19 11:41:00;;;;;;;;;;;;;;;26.48;46.63;101736.03;5076879;28;19923;-68
2022/05/19 11:43:30;;;;;;;;;;;;;;;24.86;56.56;101745.22;5092898;28;19920;-68
2022/05/19 11:45:58;;;;;;;;;;;;;;;22.44;75.55;101718.91;5086899;28;19931;-68
2022/05/19 11:57:42;;;;;;;;;;;;;;;19.56;77.17;101708.78;5090573;28;20401;-68
2022/05/19 12:00:11;;;;;;;;;;;;;;;19.47;74.88;101682.56;5090004;28;19916;-69
2022/05/19 12:02:47;;;;;;;;;;;;;;;19.36;75.10;101686.22;5089876;28;19916;-67
2022/05/19 12:05:17;;;;;;;;;;;;;;;19.20;74.79;101669.66;5088180;28;19912;-67
2022/05/19 12:07:50;;;;;;;;;;;;;;;19.15;75.29;101663.78;5092461;28;19912;-67
2022/05/19 12:10:17;;;;;;;;;;;;;;;19.18;75.96;101677.88;5092508;28;20001;-68
2022/05/19 12:12:45;;;;;;;;;;;;;;;19.27;78.11;101690.56;5088059;28;19912;-67
2022/05/19 12:15:19;;;;;;;;;;;;;;;19.27;77.72;101668.16;5090978;28;19965;-67
2022/05/19 12:17:51;;;;;;;;;;;;;;;19.28;78.74;101659.06;5086347;28;20349;-68
2022/05/19 12:20:34;;;;;;;;;;;;;;;19.39;78.74;101653.56;5088077;28;20298;-68
2022/05/19 12:23:20;;;;;;;;;;;;;;;19.40;79.52;101617.50;5088692;28;19919;-67
2022/05/19 12:25:48;;;;;;;;;;;;;;;19.38;80.13;101611.38;5090344;28;19916;-67
2022/05/19 12:28:13;;;;;;;;;;;;;;;19.52;78.07;101629.91;5095612;28;19915;-67
2022/05/19 12:33:28;;;;;;;;;;;;;;;19.77;77.68;101657.47;5092011;28;19928;-67
2022/05/19 12:36:04;;;;;;;;;;;;;;;19.94;78.49;101673.03;5092906;28;19945;-67
2022/05/19 12:38:35;;;;;;;;;;;;;;;20.04;78.67;101673.03;5092544;28;20328;-68
2022/05/19 12:41:02;;;;;;;;;;;;;;;20.08;77.75;101673.59;5089945;28;19916;-68
2022/05/19 12:43:41;;;;;;;;;;;;;;;20.14;77.93;101663.09;5095103;28;19973;-68
2022/05/19 12:46:08;;;;;;;;;;;;;;;20.16;78.04;101650.31;5092911;28;19919;-68
2022/05/19 12:48:34;;;;;;;;;;;;;;;20.26;78.10;101636.81;5096273;28;19919;-68
2022/05/19 12:51:17;;;;;;;;;;;;;;;20.40;77.47;101613.94;5094108;28;19911;-68
2022/05/19 12:54:00;;;;;;;;;;;;;;;20.45;77.89;101610.81;5093007;28;20011;-68
2022/05/19 12:56:41;;;;;;;;;;;;;;;20.46;76.99;101658.44;5096583;28;19960;-67
2022/05/19 12:59:07;;;;;;;;;;;;;;;20.50;76.78;101697.69;5093797;28;19913;-68
2022/05/19 13:01:33;;;;;;;;;;;;;;;20.57;75.61;101698.91;5095502;28;19911;-67
2022/05/19 13:04:10;;;;;;;;;;;;;;;20.97;74.84;101670.84;5093022;28;20390;-68
2022/05/19 13:06:40;;;;;;;;;;;;;;;21.80;74.10;101639.41;5095306;28;19908;-68
2022/05/19 13:09:08;;;;;;;;;;;;;;;22.44;74.05;101632.16;5091000;28;19959;-68
2022/05/19 13:11:36;;;;;;;;;;;;;;;22.72;73.58;101619.34;5093708;28;19919;-68